sensor_id;sensor_type;location;lat;lon;timestamp;pressure;altitude;pressure_sealevel;temperature;humidity
17209;BME280;8720;48.488;9.202;2023-04-26T00:00:43;97041.19;;;12.27;61.34
17209;BME280;8720;48.488;9.202;2023-04-26T00:03:10;97045.56;;;12.28;61.33
17209;BME280;8720;48.488;9.202;2023-04-26T00:05:40;97032.47;;;12.27;61.33
17209;BME280;8720;48.488;9.202;2023-04-26T00:08:08;97038.56;;;12.27;61.22
17209;BME280;8720;48.488;9.202;2023-04-26T00:10:35;97043.81;;;12.27;61.28
17209;BME280;8720;48.488;9.202;2023-04-26T00:13:02;97037.72;;;12.27;61.17
17209;BME280;8720;48.488;9.202;2023-04-26T00:15:30;97040.34;;;12.27;61.34
17209;BME280;8720;48.488;9.202;2023-04-26T00:17:57;97042.16;;;12.25;61.30
17209;BME280;8720;48.488;9.202;2023-04-26T00:20:24;97047.44;;;12.23;61.32
17209;BME280;8720;48.488;9.202;2023-04-26T00:22:53;97035.50;;;12.13;61.19
17209;BME280;8720;48.488;9.202;2023-04-26T00:25:20;97039.69;;;12.19;61.55
17209;BME280;8720;48.488;9.202;2023-04-26T00:27:48;97048.53;;;12.16;61.20
17209;BME280;8720;48.488;9.202;2023-04-26T00:30:15;97046.84;;;12.14;61.48
17209;BME280;8720;48.488;9.202;2023-04-26T00:32:42;97051.22;;;12.13;61.36
17209;BME280;8720;48.488;9.202;2023-04-26T00:35:10;97046.09;;;12.10;61.06
17209;BME280;8720;48.488;9.202;2023-04-26T00:37:37;97048.84;;;12.06;61.24
17209;BME280;8720;48.488;9.202;2023-04-26T00:40:07;97037.59;;;12.02;61.30
17209;BME280;8720;48.488;9.202;2023-04-26T00:42:36;97041.19;;;11.98;61.27
17209;BME280;8720;48.488;9.202;2023-04-26T00:45:05;97039.56;;;11.94;61.29
17209;BME280;8720;48.488;9.202;2023-04-26T00:47:32;97045.78;;;11.92;61.21
17209;BME280;8720;48.488;9.202;2023-04-26T00:50:00;97048.59;;;11.84;61.26
17209;BME280;8720;48.488;9.202;2023-04-26T00:52:29;97053.03;;;11.82;61.50
17209;BME280;8720;48.488;9.202;2023-04-26T00:54:57;97048.75;;;11.79;61.47
17209;BME280;8720;48.488;9.202;2023-04-26T00:57:26;97050.59;;;11.76;61.50
17209;BME280;8720;48.488;9.202;2023-04-26T00:59:54;97046.28;;;11.73;61.56
17209;BME280;8720;48.488;9.202;2023-04-26T01:02:21;97049.84;;;11.71;61.41
17209;BME280;8720;48.488;9.202;2023-04-26T01:04:49;97046.41;;;11.69;61.52
17209;BME280;8720;48.488;9.202;2023-04-26T01:07:16;97050.84;;;11.67;61.62
17209;BME280;8720;48.488;9.202;2023-04-26T01:09:44;97052.69;;;11.62;61.52
17209;BME280;8720;48.488;9.202;2023-04-26T01:12:12;97054.50;;;11.60;61.49
17209;BME280;8720;48.488;9.202;2023-04-26T01:14:42;97047.63;;;11.56;61.49
17209;BME280;8720;48.488;9.202;2023-04-26T01:17:10;97056.41;;;11.55;61.61
17209;BME280;8720;48.488;9.202;2023-04-26T01:19:46;97052.97;;;11.51;61.70
17209;BME280;8720;48.488;9.202;2023-04-26T01:22:13;97044.41;;;11.46;61.55
17209;BME280;8720;48.488;9.202;2023-04-26T01:24:47;97049.63;;;11.46;61.73
17209;BME280;8720;48.488;9.202;2023-04-26T01:27:14;97054.91;;;11.45;61.87
17209;BME280;8720;48.488;9.202;2023-04-26T01:29:42;97055.75;;;11.47;61.86
17209;BME280;8720;48.488;9.202;2023-04-26T01:32:11;97063.59;;;11.47;61.90
17209;BME280;8720;48.488;9.202;2023-04-26T01:34:38;97050.66;;;11.41;62.01
17209;BME280;8720;48.488;9.202;2023-04-26T01:37:05;97053.97;;;11.47;62.06
17209;BME280;8720;48.488;9.202;2023-04-26T01:39:33;97055.69;;;11.48;62.03
17209;BME280;8720;48.488;9.202;2023-04-26T01:42:03;97057.38;;;11.51;62.07
17209;BME280;8720;48.488;9.202;2023-04-26T01:44:31;97058.22;;;11.51;61.92
17209;BME280;8720;48.488;9.202;2023-04-26T01:47:00;97058.19;;;11.53;62.03
17209;BME280;8720;48.488;9.202;2023-04-26T01:49:28;97064.28;;;11.53;62.00
17209;BME280;8720;48.488;9.202;2023-04-26T01:51:55;97054.72;;;11.52;61.82
17209;BME280;8720;48.488;9.202;2023-04-26T01:54:23;97052.97;;;11.51;61.96
17209;BME280;8720;48.488;9.202;2023-04-26T01:56:52;97046.91;;;11.49;61.92
17209;BME280;8720;48.488;9.202;2023-04-26T01:59:21;97035.81;;;11.41;61.90
17209;BME280;8720;48.488;9.202;2023-04-26T02:04:23;97040.03;;;11.47;61.96
17209;BME280;8720;48.488;9.202;2023-04-26T02:06:50;97025.50;;;11.35;61.92
17209;BME280;8720;48.488;9.202;2023-04-26T02:09:17;97040.19;;;11.41;61.73
17209;BME280;8720;48.488;9.202;2023-04-26T02:11:44;97043.84;;;11.35;61.75
17209;BME280;8720;48.488;9.202;2023-04-26T02:14:12;97049.13;;;11.34;61.68
17209;BME280;8720;48.488;9.202;2023-04-26T02:16:42;97044.84;;;11.30;61.59
17209;BME280;8720;48.488;9.202;2023-04-26T02:19:10;97045.84;;;11.26;61.63
17209;BME280;8720;48.488;9.202;2023-04-26T02:21:51;97052.06;;;11.22;61.45
17209;BME280;8720;48.488;9.202;2023-04-26T02:24:19;97036.59;;;11.11;61.38
17209;BME280;8720;48.488;9.202;2023-04-26T02:26:47;97045.31;;;11.12;61.53
17209;BME280;8720;48.488;9.202;2023-04-26T02:29:14;97050.66;;;11.07;61.28
17209;BME280;8720;48.488;9.202;2023-04-26T02:31:42;97039.56;;;10.99;61.36
17209;BME280;8720;48.488;9.202;2023-04-26T02:34:11;97043.16;;;10.93;61.19
17209;BME280;8720;48.488;9.202;2023-04-26T02:36:39;97044.22;;;10.86;61.23
17209;BME280;8720;48.488;9.202;2023-04-26T02:39:06;97038.28;;;10.80;61.26
17209;BME280;8720;48.488;9.202;2023-04-26T02:41:34;97037.56;;;10.73;61.10
17209;BME280;8720;48.488;9.202;2023-04-26T02:44:01;97035.19;;;10.64;61.22
17209;BME280;8720;48.488;9.202;2023-04-26T02:46:28;97035.28;;;10.60;61.10
17209;BME280;8720;48.488;9.202;2023-04-26T02:48:57;97036.44;;;10.48;61.19
17209;BME280;8720;48.488;9.202;2023-04-26T02:51:25;97042.53;;;10.49;61.14
17209;BME280;8720;48.488;9.202;2023-04-26T02:53:52;97042.69;;;10.43;61.08
17209;BME280;8720;48.488;9.202;2023-04-26T02:56:19;97040.19;;;10.37;61.24
17209;BME280;8720;48.488;9.202;2023-04-26T02:58:47;97049.00;;;10.33;61.22
17209;BME280;8720;48.488;9.202;2023-04-26T03:01:14;97054.31;;;10.28;61.27
17209;BME280;8720;48.488;9.202;2023-04-26T03:03:42;97051.00;;;10.22;61.24
17209;BME280;8720;48.488;9.202;2023-04-26T03:06:11;97059.72;;;10.21;61.38
17209;BME280;8720;48.488;9.202;2023-04-26T03:08:38;97067.63;;;10.19;61.44
17209;BME280;8720;48.488;9.202;2023-04-26T03:11:06;97063.31;;;10.17;61.52
17209;BME280;8720;48.488;9.202;2023-04-26T03:13:34;97059.84;;;10.16;61.65
17209;BME280;8720;48.488;9.202;2023-04-26T03:16:01;97055.50;;;10.15;61.67
17209;BME280;8720;48.488;9.202;2023-04-26T03:18:28;97059.03;;;10.13;61.70
17209;BME280;8720;48.488;9.202;2023-04-26T03:20:56;97058.19;;;10.12;61.81
17209;BME280;8720;48.488;9.202;2023-04-26T03:23:25;97057.38;;;10.10;61.76
17209;BME280;8720;48.488;9.202;2023-04-26T03:25:54;97051.28;;;10.06;61.71
17209;BME280;8720;48.488;9.202;2023-04-26T03:28:21;97047.97;;;10.00;61.82
17209;BME280;8720;48.488;9.202;2023-04-26T03:30:49;97046.22;;;10.00;61.67
17209;BME280;8720;48.488;9.202;2023-04-26T03:33:17;97045.38;;;9.98;61.86
17209;BME280;8720;48.488;9.202;2023-04-26T03:35:44;97058.47;;;9.97;61.61
17209;BME280;8720;48.488;9.202;2023-04-26T03:38:11;97050.66;;;9.95;61.72
17209;BME280;8720;48.488;9.202;2023-04-26T03:40:40;97050.75;;;9.92;61.66
17209;BME280;8720;48.488;9.202;2023-04-26T03:43:08;97053.41;;;9.89;61.64
17209;BME280;8720;48.488;9.202;2023-04-26T03:45:35;97043.03;;;9.86;61.54
17209;BME280;8720;48.488;9.202;2023-04-26T03:48:03;97043.06;;;9.83;61.64
17209;BME280;8720;48.488;9.202;2023-04-26T03:50:30;97041.44;;;9.79;61.54
17209;BME280;8720;48.488;9.202;2023-04-26T03:52:58;97039.78;;;9.75;61.43
17209;BME280;8720;48.488;9.202;2023-04-26T03:55:25;97039.88;;;9.71;61.47
17209;BME280;8720;48.488;9.202;2023-04-26T03:57:55;97035.63;;;9.65;61.54
17209;BME280;8720;48.488;9.202;2023-04-26T04:00:23;97045.31;;;9.59;61.49
17209;BME280;8720;48.488;9.202;2023-04-26T04:02:50;97045.44;;;9.54;61.74
17209;BME280;8720;48.488;9.202;2023-04-26T04:05:23;97048.13;;;9.50;61.89
17209;BME280;8720;48.488;9.202;2023-04-26T04:07:51;97045.59;;;9.47;61.88
17209;BME280;8720;48.488;9.202;2023-04-26T04:10:19;97047.31;;;9.46;61.92
17209;BME280;8720;48.488;9.202;2023-04-26T04:12:48;97038.69;;;9.41;61.92
17209;BME280;8720;48.488;9.202;2023-04-26T04:15:18;97043.06;;;9.42;61.92
17209;BME280;8720;48.488;9.202;2023-04-26T04:17:47;97048.28;;;9.42;61.98
17209;BME280;8720;48.488;9.202;2023-04-26T04:20:14;97042.19;;;9.42;62.06
17209;BME280;8720;48.488;9.202;2023-04-26T04:22:42;97043.00;;;9.44;62.11
17209;BME280;8720;48.488;9.202;2023-04-26T04:25:09;97040.38;;;9.45;62.28
17209;BME280;8720;48.488;9.202;2023-04-26T04:27:39;97043.81;;;9.47;62.02
17209;BME280;8720;48.488;9.202;2023-04-26T04:30:08;97037.75;;;9.45;62.16
17209;BME280;8720;48.488;9.202;2023-04-26T04:32:40;97042.00;;;9.51;62.49
17209;BME280;8720;48.488;9.202;2023-04-26T04:35:10;97049.81;;;9.51;62.40
17209;BME280;8720;48.488;9.202;2023-04-26T04:37:38;97053.31;;;9.51;62.35
17209;BME280;8720;48.488;9.202;2023-04-26T04:40:07;97049.81;;;9.51;62.38
17209;BME280;8720;48.488;9.202;2023-04-26T04:42:37;97049.72;;;9.57;61.96
17209;BME280;8720;48.488;9.202;2023-04-26T04:45:08;97053.22;;;9.56;62.05
17209;BME280;8720;48.488;9.202;2023-04-26T04:47:39;97059.38;;;9.53;62.40
17209;BME280;8720;48.488;9.202;2023-04-26T04:50:07;97053.28;;;9.53;62.32
17209;BME280;8720;48.488;9.202;2023-04-26T04:52:35;97055.88;;;9.54;62.65
17209;BME280;8720;48.488;9.202;2023-04-26T04:55:03;97052.31;;;9.57;62.57
17209;BME280;8720;48.488;9.202;2023-04-26T04:57:32;97057.47;;;9.61;62.68
17209;BME280;8720;48.488;9.202;2023-04-26T04:59:59;97061.72;;;9.67;62.78
17209;BME280;8720;48.488;9.202;2023-04-26T05:02:36;97066.84;;;9.71;62.71
17209;BME280;8720;48.488;9.202;2023-04-26T05:05:07;97069.34;;;9.77;62.63
17209;BME280;8720;48.488;9.202;2023-04-26T05:07:35;97074.41;;;9.85;62.80
17209;BME280;8720;48.488;9.202;2023-04-26T05:10:04;97076.88;;;9.92;62.79
17209;BME280;8720;48.488;9.202;2023-04-26T05:12:32;97073.19;;;10.01;62.88
17209;BME280;8720;48.488;9.202;2023-04-26T05:15:00;97086.13;;;10.10;62.94
17209;BME280;8720;48.488;9.202;2023-04-26T05:17:27;97086.78;;;10.18;62.79
17209;BME280;8720;48.488;9.202;2023-04-26T05:19:56;97083.16;;;10.25;62.74
17209;BME280;8720;48.488;9.202;2023-04-26T05:22:26;97081.25;;;10.32;62.64
17209;BME280;8720;48.488;9.202;2023-04-26T05:24:53;97076.75;;;10.38;62.67
17209;BME280;8720;48.488;9.202;2023-04-26T05:27:21;97080.13;;;10.43;62.44
17209;BME280;8720;48.488;9.202;2023-04-26T05:30:04;97085.25;;;10.48;62.45
17209;BME280;8720;48.488;9.202;2023-04-26T05:32:56;97093.03;;;10.52;62.43
17209;BME280;8720;48.488;9.202;2023-04-26T05:35:33;97086.75;;;10.59;62.59
17209;BME280;8720;48.488;9.202;2023-04-26T05:38:02;97095.28;;;10.67;62.65
17209;BME280;8720;48.488;9.202;2023-04-26T05:40:29;97100.28;;;10.76;62.61
17209;BME280;8720;48.488;9.202;2023-04-26T05:42:57;97100.97;;;10.84;62.61
17209;BME280;8720;48.488;9.202;2023-04-26T05:45:26;97106.84;;;10.94;62.78
17209;BME280;8720;48.488;9.202;2023-04-26T05:47:53;97106.59;;;11.05;62.98
17209;BME280;8720;48.488;9.202;2023-04-26T05:50:21;97111.59;;;11.14;62.74
17209;BME280;8720;48.488;9.202;2023-04-26T05:52:48;97113.16;;;11.22;62.79
17209;BME280;8720;48.488;9.202;2023-04-26T05:55:17;97111.16;;;11.32;62.88
17209;BME280;8720;48.488;9.202;2023-04-26T05:57:44;97121.38;;;11.41;62.97
17209;BME280;8720;48.488;9.202;2023-04-26T06:00:14;97115.91;;;11.50;62.77
17209;BME280;8720;48.488;9.202;2023-04-26T06:02:43;97114.75;;;11.60;62.85
17209;BME280;8720;48.488;9.202;2023-04-26T06:05:15;97113.66;;;11.70;62.76
17209;BME280;8720;48.488;9.202;2023-04-26T06:07:42;97116.03;;;11.79;62.75
17209;BME280;8720;48.488;9.202;2023-04-26T06:10:11;97108.72;;;11.90;62.76
17209;BME280;8720;48.488;9.202;2023-04-26T06:12:40;97112.59;;;12.08;62.75
17209;BME280;8720;48.488;9.202;2023-04-26T06:15:09;97117.38;;;12.23;62.53
17209;BME280;8720;48.488;9.202;2023-04-26T06:17:39;97119.63;;;12.36;62.49
17209;BME280;8720;48.488;9.202;2023-04-26T06:20:07;97115.75;;;12.49;62.32
17209;BME280;8720;48.488;9.202;2023-04-26T06:22:35;97113.47;;;12.66;62.42
17209;BME280;8720;48.488;9.202;2023-04-26T06:25:05;97115.50;;;12.85;62.37
17209;BME280;8720;48.488;9.202;2023-04-26T06:27:34;97119.38;;;13.01;62.30
17209;BME280;8720;48.488;9.202;2023-04-26T06:30:04;97114.56;;;13.15;61.84
17209;BME280;8720;48.488;9.202;2023-04-26T06:32:33;97113.31;;;13.26;61.87
17209;BME280;8720;48.488;9.202;2023-04-26T06:35:01;97124.19;;;13.42;62.15
17209;BME280;8720;48.488;9.202;2023-04-26T06:37:28;97130.09;;;13.73;62.62
17209;BME280;8720;48.488;9.202;2023-04-26T06:39:56;97130.50;;;14.10;62.67
17209;BME280;8720;48.488;9.202;2023-04-26T06:42:23;97127.66;;;14.41;62.17
17209;BME280;8720;48.488;9.202;2023-04-26T06:45:15;97123.25;;;14.65;61.09
17209;BME280;8720;48.488;9.202;2023-04-26T06:47:44;97118.41;;;14.76;60.07
17209;BME280;8720;48.488;9.202;2023-04-26T06:50:12;97126.06;;;14.82;59.90
17209;BME280;8720;48.488;9.202;2023-04-26T06:52:39;97133.59;;;14.91;59.86
17209;BME280;8720;48.488;9.202;2023-04-26T06:55:08;97127.88;;;15.03;59.50
17209;BME280;8720;48.488;9.202;2023-04-26T06:57:35;97128.13;;;15.18;59.03
17209;BME280;8720;48.488;9.202;2023-04-26T07:00:04;97119.66;;;15.32;58.78
17209;BME280;8720;48.488;9.202;2023-04-26T07:02:33;97125.25;;;15.46;58.99
17209;BME280;8720;48.488;9.202;2023-04-26T07:05:00;97118.59;;;15.78;59.33
17209;BME280;8720;48.488;9.202;2023-04-26T07:07:28;97101.75;;;16.20;59.37
17209;BME280;8720;48.488;9.202;2023-04-26T07:09:55;97108.09;;;16.55;58.95
17209;BME280;8720;48.488;9.202;2023-04-26T07:12:22;97101.63;;;16.81;58.27
17209;BME280;8720;48.488;9.202;2023-04-26T07:14:49;97104.94;;;17.21;58.78
17209;BME280;8720;48.488;9.202;2023-04-26T07:17:17;97106.09;;;17.69;58.11
17209;BME280;8720;48.488;9.202;2023-04-26T07:19:46;97103.56;;;18.17;57.35
17209;BME280;8720;48.488;9.202;2023-04-26T07:22:13;97101.13;;;18.47;56.25
17209;BME280;8720;48.488;9.202;2023-04-26T07:24:40;97103.69;;;18.64;54.74
17209;BME280;8720;48.488;9.202;2023-04-26T07:27:08;97100.63;;;18.71;54.11
17209;BME280;8720;48.488;9.202;2023-04-26T07:29:35;97097.81;;;18.74;53.49
17209;BME280;8720;48.488;9.202;2023-04-26T07:32:02;97098.84;;;18.72;52.34
17209;BME280;8720;48.488;9.202;2023-04-26T07:34:30;97086.00;;;18.64;52.25
17209;BME280;8720;48.488;9.202;2023-04-26T07:36:58;97090.25;;;18.51;51.35
17209;BME280;8720;48.488;9.202;2023-04-26T07:39:26;97081.88;;;18.43;51.99
17209;BME280;8720;48.488;9.202;2023-04-26T07:41:54;97086.00;;;18.49;52.66
17209;BME280;8720;48.488;9.202;2023-04-26T07:44:21;97087.22;;;18.59;52.32
17209;BME280;8720;48.488;9.202;2023-04-26T07:46:50;97081.31;;;18.69;52.59
17209;BME280;8720;48.488;9.202;2023-04-26T07:49:18;97076.25;;;18.80;52.51
17209;BME280;8720;48.488;9.202;2023-04-26T07:51:45;97081.22;;;18.86;51.91
17209;BME280;8720;48.488;9.202;2023-04-26T07:54:14;97084.63;;;18.73;50.94
17209;BME280;8720;48.488;9.202;2023-04-26T07:56:41;97081.53;;;18.49;50.50
17209;BME280;8720;48.488;9.202;2023-04-26T07:59:08;97079.16;;;18.28;50.88
17209;BME280;8720;48.488;9.202;2023-04-26T08:01:36;97083.00;;;18.22;51.45
17209;BME280;8720;48.488;9.202;2023-04-26T08:04:04;97085.38;;;18.27;52.03
17209;BME280;8720;48.488;9.202;2023-04-26T08:06:31;97078.06;;;18.32;52.32
17209;BME280;8720;48.488;9.202;2023-04-26T08:08:58;97076.59;;;18.43;52.32
17209;BME280;8720;48.488;9.202;2023-04-26T08:11:27;97082.91;;;18.56;52.07
17209;BME280;8720;48.488;9.202;2023-04-26T08:13:54;97082.59;;;18.78;52.40
17209;BME280;8720;48.488;9.202;2023-04-26T08:16:22;97084.13;;;18.97;52.20
17209;BME280;8720;48.488;9.202;2023-04-26T08:18:50;97085.75;;;19.16;51.57
17209;BME280;8720;48.488;9.202;2023-04-26T08:21:17;97078.47;;;19.19;51.19
17209;BME280;8720;48.488;9.202;2023-04-26T08:23:44;97085.66;;;19.17;50.96
17209;BME280;8720;48.488;9.202;2023-04-26T08:26:11;97088.66;;;19.11;49.59
17209;BME280;8720;48.488;9.202;2023-04-26T08:28:40;97089.03;;;19.05;49.99
17209;BME280;8720;48.488;9.202;2023-04-26T08:31:07;97092.69;;;19.02;49.64
17209;BME280;8720;48.488;9.202;2023-04-26T08:33:34;97087.22;;;18.90;49.71
17209;BME280;8720;48.488;9.202;2023-04-26T08:36:02;97095.09;;;18.76;49.92
17209;BME280;8720;48.488;9.202;2023-04-26T08:38:30;97091.66;;;18.58;50.35
17209;BME280;8720;48.488;9.202;2023-04-26T08:40:59;97089.56;;;18.48;50.30
17209;BME280;8720;48.488;9.202;2023-04-26T08:43:28;97084.75;;;18.39;50.40
17209;BME280;8720;48.488;9.202;2023-04-26T08:45:58;97090.34;;;18.33;49.88
17209;BME280;8720;48.488;9.202;2023-04-26T08:48:29;97088.03;;;18.27;50.34
17209;BME280;8720;48.488;9.202;2023-04-26T08:51:00;97095.06;;;18.28;50.31
17209;BME280;8720;48.488;9.202;2023-04-26T08:53:30;97089.81;;;18.26;50.42
17209;BME280;8720;48.488;9.202;2023-04-26T08:56:03;97096.47;;;18.17;50.19
17209;BME280;8720;48.488;9.202;2023-04-26T08:58:31;97090.16;;;18.03;50.17
17209;BME280;8720;48.488;9.202;2023-04-26T09:01:01;97100.56;;;17.90;50.19
17209;BME280;8720;48.488;9.202;2023-04-26T09:03:30;97095.19;;;17.75;50.02
17209;BME280;8720;48.488;9.202;2023-04-26T09:05:57;97106.34;;;17.64;50.35
17209;BME280;8720;48.488;9.202;2023-04-26T09:08:26;97101.34;;;17.58;50.22
17209;BME280;8720;48.488;9.202;2023-04-26T09:10:54;97100.88;;;17.50;50.14
17209;BME280;8720;48.488;9.202;2023-04-26T09:13:27;97091.94;;;17.34;49.96
17209;BME280;8720;48.488;9.202;2023-04-26T09:15:55;97094.75;;;17.31;50.52
17209;BME280;8720;48.488;9.202;2023-04-26T09:18:24;97093.81;;;17.32;50.68
17209;BME280;8720;48.488;9.202;2023-04-26T09:21:03;97097.16;;;17.36;51.14
17209;BME280;8720;48.488;9.202;2023-04-26T09:23:31;97093.50;;;17.38;50.51
17209;BME280;8720;48.488;9.202;2023-04-26T09:26:17;97091.03;;;17.35;51.16
17209;BME280;8720;48.488;9.202;2023-04-26T09:28:45;97089.94;;;17.39;50.51
17209;BME280;8720;48.488;9.202;2023-04-26T09:31:35;97091.50;;;17.43;51.15
17209;BME280;8720;48.488;9.202;2023-04-26T09:34:08;97091.16;;;17.51;49.77
17209;BME280;8720;48.488;9.202;2023-04-26T09:36:49;97081.97;;;17.58;50.44
17209;BME280;8720;48.488;9.202;2023-04-26T09:39:31;97083.03;;;17.71;50.12
17209;BME280;8720;48.488;9.202;2023-04-26T09:41:59;97083.28;;;17.83;50.07
17209;BME280;8720;48.488;9.202;2023-04-26T09:44:29;97087.00;;;17.96;49.67
17209;BME280;8720;48.488;9.202;2023-04-26T09:47:02;97074.22;;;18.04;48.87
17209;BME280;8720;48.488;9.202;2023-04-26T09:49:41;97074.91;;;18.08;48.79
17209;BME280;8720;48.488;9.202;2023-04-26T09:52:09;97073.13;;;18.08;48.27
17209;BME280;8720;48.488;9.202;2023-04-26T09:54:42;97072.50;;;18.03;47.76
17209;BME280;8720;48.488;9.202;2023-04-26T09:57:10;97067.53;;;17.97;48.00
17209;BME280;8720;48.488;9.202;2023-04-26T09:59:43;97073.69;;;17.98;48.04
17209;BME280;8720;48.488;9.202;2023-04-26T10:02:18;97072.50;;;18.03;48.12
17209;BME280;8720;48.488;9.202;2023-04-26T10:04:50;97074.84;;;18.09;47.76
17209;BME280;8720;48.488;9.202;2023-04-26T10:07:20;97070.31;;;18.11;47.79
17209;BME280;8720;48.488;9.202;2023-04-26T10:09:49;97063.31;;;18.10;47.72
17209;BME280;8720;48.488;9.202;2023-04-26T10:12:18;97069.31;;;18.14;48.04
17209;BME280;8720;48.488;9.202;2023-04-26T10:14:47;97062.91;;;18.18;47.21
17209;BME280;8720;48.488;9.202;2023-04-26T10:17:15;97059.22;;;18.21;47.19
17209;BME280;8720;48.488;9.202;2023-04-26T10:19:49;97058.03;;;18.26;47.63
17209;BME280;8720;48.488;9.202;2023-04-26T10:22:22;97054.13;;;18.33;47.35
17209;BME280;8720;48.488;9.202;2023-04-26T10:24:52;97055.50;;;18.40;47.57
17209;BME280;8720;48.488;9.202;2023-04-26T10:27:51;97049.91;;;18.46;48.63
17209;BME280;8720;48.488;9.202;2023-04-26T10:30:20;97046.94;;;18.52;47.05
17209;BME280;8720;48.488;9.202;2023-04-26T10:33:15;97040.53;;;18.56;47.75
17209;BME280;8720;48.488;9.202;2023-04-26T10:36:14;97042.06;;;18.60;48.18
17209;BME280;8720;48.488;9.202;2023-04-26T10:39:20;97037.03;;;18.71;49.00
17209;BME280;8720;48.488;9.202;2023-04-26T10:41:48;97039.00;;;18.83;47.80
17209;BME280;8720;48.488;9.202;2023-04-26T10:44:38;97035.72;;;18.94;47.50
17209;BME280;8720;48.488;9.202;2023-04-26T10:47:19;97036.41;;;18.97;46.55
17209;BME280;8720;48.488;9.202;2023-04-26T10:49:49;97038.66;;;18.89;46.42
17209;BME280;8720;48.488;9.202;2023-04-26T10:52:19;97037.28;;;18.82;46.24
17209;BME280;8720;48.488;9.202;2023-04-26T10:54:54;97031.28;;;18.79;46.23
17209;BME280;8720;48.488;9.202;2023-04-26T10:57:23;97037.53;;;18.78;46.28
17209;BME280;8720;48.488;9.202;2023-04-26T11:00:29;97027.38;;;18.70;47.53
17209;BME280;8720;48.488;9.202;2023-04-26T11:03:05;97036.44;;;18.66;46.47
17209;BME280;8720;48.488;9.202;2023-04-26T11:05:51;97034.63;;;18.67;46.17
17209;BME280;8720;48.488;9.202;2023-04-26T11:08:25;97026.84;;;18.64;45.69
17209;BME280;8720;48.488;9.202;2023-04-26T11:11:07;97020.59;;;18.65;45.76
17209;BME280;8720;48.488;9.202;2023-04-26T11:13:38;97029.41;;;18.65;45.82
17209;BME280;8720;48.488;9.202;2023-04-26T11:16:07;97025.66;;;18.69;45.44
17209;BME280;8720;48.488;9.202;2023-04-26T11:18:39;97023.59;;;18.74;45.32
17209;BME280;8720;48.488;9.202;2023-04-26T11:21:08;97026.66;;;18.82;44.92
17209;BME280;8720;48.488;9.202;2023-04-26T11:23:38;97015.63;;;18.90;45.05
17209;BME280;8720;48.488;9.202;2023-04-26T11:26:08;97011.78;;;18.95;44.67
17209;BME280;8720;48.488;9.202;2023-04-26T11:28:37;97003.75;;;18.97;44.63
17209;BME280;8720;48.488;9.202;2023-04-26T11:31:06;97013.16;;;19.02;44.67
17209;BME280;8720;48.488;9.202;2023-04-26T11:33:33;97010.03;;;19.10;44.45
17209;BME280;8720;48.488;9.202;2023-04-26T11:36:00;97014.91;;;19.18;44.28
17209;BME280;8720;48.488;9.202;2023-04-26T11:38:28;96998.91;;;19.19;43.87
17209;BME280;8720;48.488;9.202;2023-04-26T11:40:58;96993.91;;;19.29;43.29
17209;BME280;8720;48.488;9.202;2023-04-26T11:43:33;96996.41;;;19.32;43.98
17209;BME280;8720;48.488;9.202;2023-04-26T11:46:02;96988.19;;;19.36;44.04
17209;BME280;8720;48.488;9.202;2023-04-26T11:48:30;96989.34;;;19.46;43.90
17209;BME280;8720;48.488;9.202;2023-04-26T11:50:59;96979.13;;;19.54;44.13
17209;BME280;8720;48.488;9.202;2023-04-26T11:53:35;96968.72;;;19.65;43.86
17209;BME280;8720;48.488;9.202;2023-04-26T11:56:13;96973.19;;;19.79;43.71
17209;BME280;8720;48.488;9.202;2023-04-26T11:58:44;96967.22;;;19.89;43.35
17209;BME280;8720;48.488;9.202;2023-04-26T12:01:20;96960.47;;;19.98;43.57
17209;BME280;8720;48.488;9.202;2023-04-26T12:03:50;96964.66;;;20.02;42.77
17209;BME280;8720;48.488;9.202;2023-04-26T12:06:18;96961.06;;;20.03;42.44
17209;BME280;8720;48.488;9.202;2023-04-26T12:08:49;96952.44;;;20.00;43.07
17209;BME280;8720;48.488;9.202;2023-04-26T12:11:18;96964.47;;;20.05;43.17
17209;BME280;8720;48.488;9.202;2023-04-26T12:13:46;96959.25;;;20.04;42.69
17209;BME280;8720;48.488;9.202;2023-04-26T12:16:13;96962.84;;;20.03;42.88
17209;BME280;8720;48.488;9.202;2023-04-26T12:18:49;96962.09;;;20.01;42.53
17209;BME280;8720;48.488;9.202;2023-04-26T12:21:16;96955.28;;;19.97;42.25
17209;BME280;8720;48.488;9.202;2023-04-26T12:23:44;96953.75;;;19.92;42.22
17209;BME280;8720;48.488;9.202;2023-04-26T12:26:13;96949.41;;;19.91;42.33
17209;BME280;8720;48.488;9.202;2023-04-26T12:28:42;96962.69;;;19.91;42.35
17209;BME280;8720;48.488;9.202;2023-04-26T12:31:10;96962.69;;;19.91;41.85
17209;BME280;8720;48.488;9.202;2023-04-26T12:33:38;96966.47;;;19.87;42.06
17209;BME280;8720;48.488;9.202;2023-04-26T12:36:07;96956.88;;;19.85;42.20
17209;BME280;8720;48.488;9.202;2023-04-26T12:38:34;96964.75;;;19.86;42.27
17209;BME280;8720;48.488;9.202;2023-04-26T12:41:02;96960.28;;;19.87;41.80
17209;BME280;8720;48.488;9.202;2023-04-26T12:43:29;96951.56;;;19.85;41.90
17209;BME280;8720;48.488;9.202;2023-04-26T12:46:01;96949.28;;;19.79;41.55
17209;BME280;8720;48.488;9.202;2023-04-26T12:48:28;96944.28;;;19.74;41.54
17209;BME280;8720;48.488;9.202;2023-04-26T12:50:55;96944.94;;;19.64;41.86
17209;BME280;8720;48.488;9.202;2023-04-26T12:53:22;96935.72;;;19.55;41.77
17209;BME280;8720;48.488;9.202;2023-04-26T12:55:50;96942.25;;;19.50;42.11
17209;BME280;8720;48.488;9.202;2023-04-26T12:58:17;96931.94;;;19.45;41.97
17209;BME280;8720;48.488;9.202;2023-04-26T13:00:44;96934.84;;;19.41;41.98
17209;BME280;8720;48.488;9.202;2023-04-26T13:03:13;96929.44;;;19.42;42.60
17209;BME280;8720;48.488;9.202;2023-04-26T13:05:40;96923.78;;;19.48;42.99
17209;BME280;8720;48.488;9.202;2023-04-26T13:08:08;96917.81;;;19.59;42.35
17209;BME280;8720;48.488;9.202;2023-04-26T13:10:35;96918.28;;;19.65;41.97
17209;BME280;8720;48.488;9.202;2023-04-26T13:13:02;96923.03;;;19.74;42.52
17209;BME280;8720;48.488;9.202;2023-04-26T13:15:30;96920.19;;;19.77;42.81
17209;BME280;8720;48.488;9.202;2023-04-26T13:17:57;96924.16;;;19.84;41.75
17209;BME280;8720;48.488;9.202;2023-04-26T13:20:25;96926.53;;;19.89;41.72
17209;BME280;8720;48.488;9.202;2023-04-26T13:22:53;96917.44;;;19.93;41.42
17209;BME280;8720;48.488;9.202;2023-04-26T13:25:20;96925.19;;;19.96;42.00
17209;BME280;8720;48.488;9.202;2023-04-26T13:27:48;96927.69;;;19.99;42.23